Monticello, KY

8:32 PM EDT on July 01, 2015 (GMT -0400)
Susie Community, Monticello, Urman-Link | | Change Station
CLOSE
Current Station
Personal Weather Station
Location: Monticello, KY
Elevation: 997 ft
Nearby Weather Stations

Elev 997 ft 36.78 °N, 84.96 °W | Updated 9 minutes ago

Partly Cloudy
Partly Cloudy
72.0 °F
Feels Like 71 °F
N
3.7
Wind Variable Wind from South

Today
High -- | Low -- °F
--% Chance of Precip.
Yesterday
High -- | Low -- °F
Precip. -- in
6:23 AM 9:02 PM
Full, 100% visible
Pressure 29.96 in
Visibility 7.0 miles
Clouds Scattered Clouds 800 ft
Mostly Cloudy 1400 ft
Overcast 3300 ft
Heat Index 71 °F
Dew Point 67 °F
Humidity 85%
Rainfall 0.21 in
Snow Depth Not available.
UV 0 out of 12
Pollen 1.40 out of 12
Air Quality Not available.
Flu Activity Not available.
METAR KSME 020015Z AUTO 00000KT 7SM -VCTSRA SCT008 BKN014 OVC033 19/19 A2996 RMK AO2 LTG DSNT SE P0005

More Conditions Fewer Conditions

Pressure 29.96 in
Visibility 7.0 miles
Clouds Scattered Clouds 800 ft
Mostly Cloudy 1400 ft
Overcast 3300 ft
Heat Index 71 °F
Dew Point 67 °F
Humidity 85%
Rainfall 0.21 in
Snow Depth Not available.
UV 0 out of 12
Pollen 1.40 out of 12
Air Quality Not available.
Flu Activity Not available.
METAR KSME 020015Z AUTO 00000KT 7SM -VCTSRA SCT008 BKN014 OVC033 19/19 A2996 RMK AO2 LTG DSNT SE P0005

More Conditions Fewer Conditions

10-Day Weather Forecast

×

Almanac

Astronomy

Jul. 01, 2015 Rise Set
Actual Time
Civil Twilight
Nautical Twilight
Astronomical Twilight
Moon
Length of Visible Light
Length of Day
Tomorrow will be .
, % of the Moon is Illuminated

Today's Extremes

State Highs State Lows

Community

WunderPhotos

Upload Photos

1,834,355 photos uploaded!

WunderBlogs® & News

Nearby

Air Quality

  Air Quality AQ Index Pollutant
Not available.

Snow Depth

Station Depth Elevation

Earthquake Activity

City Distance Mag. Time & Date
Minimum magnitude displayed is 2.5.

Coastal Water Temperatures

Place Temperature

Stations

Nearby Weather Stations

Station Location Temp. Windchill Dew Point Humidity Wind Precip. Elev Updated Type